sensor_id;sensor_type;location;lat;lon;timestamp;pressure;altitude;pressure_sealevel;temperature;humidity
41202;BME280;26936;50.524;8.684;2024-01-06T00:01:19;98066.41;;;6.11;86.16
41202;BME280;26936;50.524;8.684;2024-01-06T00:03:44;98057.94;;;6.02;87.00
41202;BME280;26936;50.524;8.684;2024-01-06T00:06:13;98062.31;;;6.03;87.53
41202;BME280;26936;50.524;8.684;2024-01-06T00:08:39;98068.28;;;5.80;88.01
41202;BME280;26936;50.524;8.684;2024-01-06T00:11:04;98072.44;;;5.76;88.70
41202;BME280;26936;50.524;8.684;2024-01-06T00:13:29;98069.22;;;5.77;88.40
41202;BME280;26936;50.524;8.684;2024-01-06T00:15:55;98067.63;;;5.76;88.75
41202;BME280;26936;50.524;8.684;2024-01-06T00:18:20;98069.75;;;5.85;88.18
41202;BME280;26936;50.524;8.684;2024-01-06T00:20:45;98068.59;;;5.61;88.84
41202;BME280;26936;50.524;8.684;2024-01-06T00:23:10;98075.72;;;5.62;89.51
41202;BME280;26936;50.524;8.684;2024-01-06T00:25:36;98082.75;;;5.66;89.14
41202;BME280;26936;50.524;8.684;2024-01-06T00:28:01;98080.16;;;5.84;88.89
41202;BME280;26936;50.524;8.684;2024-01-06T00:30:26;98091.88;;;5.92;88.44
41202;BME280;26936;50.524;8.684;2024-01-06T00:32:51;98081.72;;;5.85;88.09
41202;BME280;26936;50.524;8.684;2024-01-06T00:35:17;98086.34;;;6.01;88.39
41202;BME280;26936;50.524;8.684;2024-01-06T00:37:42;98092.56;;;5.83;88.90
41202;BME280;26936;50.524;8.684;2024-01-06T00:40:09;98095.19;;;5.99;88.72
41202;BME280;26936;50.524;8.684;2024-01-06T00:42:34;98097.34;;;5.83;89.12
41202;BME280;26936;50.524;8.684;2024-01-06T00:44:59;98097.69;;;5.85;90.06
41202;BME280;26936;50.524;8.684;2024-01-06T00:47:25;98098.97;;;6.05;89.77
41202;BME280;26936;50.524;8.684;2024-01-06T00:49:50;98108.50;;;6.17;89.40
41202;BME280;26936;50.524;8.684;2024-01-06T00:52:15;98098.47;;;5.85;91.19
41202;BME280;26936;50.524;8.684;2024-01-06T00:54:41;98107.41;;;5.80;92.27
41202;BME280;26936;50.524;8.684;2024-01-06T00:57:06;98107.06;;;5.78;92.35
41202;BME280;26936;50.524;8.684;2024-01-06T00:59:31;98110.50;;;5.95;92.14
41202;BME280;26936;50.524;8.684;2024-01-06T01:01:56;98117.78;;;5.80;93.42
41202;BME280;26936;50.524;8.684;2024-01-06T01:04:22;98119.88;;;6.01;92.68
41202;BME280;26936;50.524;8.684;2024-01-06T01:06:47;98107.50;;;5.89;93.49
41202;BME280;26936;50.524;8.684;2024-01-06T01:09:12;98113.78;;;5.81;93.98
41202;BME280;26936;50.524;8.684;2024-01-06T01:11:39;98114.22;;;5.92;93.80
41202;BME280;26936;50.524;8.684;2024-01-06T01:14:04;98101.63;;;6.09;92.94
41202;BME280;26936;50.524;8.684;2024-01-06T01:16:29;98115.53;;;6.00;93.46
41202;BME280;26936;50.524;8.684;2024-01-06T01:18:57;98111.63;;;6.19;92.74
41202;BME280;26936;50.524;8.684;2024-01-06T01:21:22;98117.44;;;6.24;92.28
41202;BME280;26936;50.524;8.684;2024-01-06T01:23:47;98104.56;;;6.05;92.96
41202;BME280;26936;50.524;8.684;2024-01-06T01:26:13;98118.19;;;6.03;93.86
41202;BME280;26936;50.524;8.684;2024-01-06T01:28:38;98114.09;;;6.17;93.09
41202;BME280;26936;50.524;8.684;2024-01-06T01:31:03;98124.41;;;6.20;93.00
41202;BME280;26936;50.524;8.684;2024-01-06T01:33:28;98125.38;;;6.26;92.83
41202;BME280;26936;50.524;8.684;2024-01-06T01:35:54;98123.75;;;6.37;91.42
41202;BME280;26936;50.524;8.684;2024-01-06T01:38:19;98128.50;;;6.28;91.85
41202;BME280;26936;50.524;8.684;2024-01-06T01:40:44;98130.69;;;6.54;91.29
41202;BME280;26936;50.524;8.684;2024-01-06T01:43:17;98127.13;;;6.54;91.00
41202;BME280;26936;50.524;8.684;2024-01-06T01:45:42;98129.28;;;6.50;91.61
41202;BME280;26936;50.524;8.684;2024-01-06T01:48:08;98129.97;;;6.84;90.17
41202;BME280;26936;50.524;8.684;2024-01-06T01:50:33;98142.72;;;6.85;89.77
41202;BME280;26936;50.524;8.684;2024-01-06T01:52:59;98139.81;;;6.46;91.68
41202;BME280;26936;50.524;8.684;2024-01-06T01:55:24;98141.31;;;6.59;90.89
41202;BME280;26936;50.524;8.684;2024-01-06T01:57:50;98141.25;;;6.72;90.99
41202;BME280;26936;50.524;8.684;2024-01-06T02:00:15;98141.25;;;6.50;91.47
41202;BME280;26936;50.524;8.684;2024-01-06T02:02:41;98135.06;;;6.55;91.45
41202;BME280;26936;50.524;8.684;2024-01-06T02:05:06;98147.03;;;6.56;91.19
41202;BME280;26936;50.524;8.684;2024-01-06T02:07:31;98141.88;;;6.76;90.74
41202;BME280;26936;50.524;8.684;2024-01-06T02:09:56;98151.88;;;6.86;89.71
41202;BME280;26936;50.524;8.684;2024-01-06T02:12:22;98150.03;;;6.61;91.20
41202;BME280;26936;50.524;8.684;2024-01-06T02:14:47;98153.97;;;6.95;89.50
41202;BME280;26936;50.524;8.684;2024-01-06T02:17:12;98156.47;;;7.02;88.62
41202;BME280;26936;50.524;8.684;2024-01-06T02:19:38;98161.31;;;7.01;88.66
41202;BME280;26936;50.524;8.684;2024-01-06T02:22:03;98167.06;;;7.07;87.55
41202;BME280;26936;50.524;8.684;2024-01-06T02:24:28;98164.47;;;6.81;88.73
41202;BME280;26936;50.524;8.684;2024-01-06T02:26:53;98157.00;;;6.78;88.81
41202;BME280;26936;50.524;8.684;2024-01-06T02:29:19;98158.53;;;6.79;88.63
41202;BME280;26936;50.524;8.684;2024-01-06T02:31:44;98167.03;;;6.98;88.20
41202;BME280;26936;50.524;8.684;2024-01-06T02:34:09;98168.22;;;7.18;87.20
41202;BME280;26936;50.524;8.684;2024-01-06T02:36:35;98164.84;;;6.93;88.57
41202;BME280;26936;50.524;8.684;2024-01-06T02:39:00;98171.69;;;6.92;88.67
41202;BME280;26936;50.524;8.684;2024-01-06T02:41:25;98174.31;;;6.95;88.79
41202;BME280;26936;50.524;8.684;2024-01-06T02:43:53;98173.72;;;7.00;88.97
41202;BME280;26936;50.524;8.684;2024-01-06T02:46:19;98181.66;;;7.02;89.25
41202;BME280;26936;50.524;8.684;2024-01-06T02:48:44;98182.41;;;6.93;89.64
41202;BME280;26936;50.524;8.684;2024-01-06T02:51:11;98183.97;;;6.94;89.66
41202;BME280;26936;50.524;8.684;2024-01-06T02:53:37;98185.47;;;6.86;90.60
41202;BME280;26936;50.524;8.684;2024-01-06T02:56:02;98190.41;;;6.82;91.08
41202;BME280;26936;50.524;8.684;2024-01-06T02:58:27;98191.66;;;6.81;91.47
41202;BME280;26936;50.524;8.684;2024-01-06T03:00:52;98193.63;;;6.71;91.94
41202;BME280;26936;50.524;8.684;2024-01-06T03:03:18;98192.19;;;6.67;92.53
41202;BME280;26936;50.524;8.684;2024-01-06T03:05:43;98192.06;;;6.70;91.87
41202;BME280;26936;50.524;8.684;2024-01-06T03:08:09;98194.19;;;6.66;92.33
41202;BME280;26936;50.524;8.684;2024-01-06T03:10:34;98199.78;;;6.66;93.04
41202;BME280;26936;50.524;8.684;2024-01-06T03:12:59;98201.34;;;6.67;92.76
41202;BME280;26936;50.524;8.684;2024-01-06T03:15:25;98200.25;;;6.65;93.06
41202;BME280;26936;50.524;8.684;2024-01-06T03:17:50;98198.09;;;6.69;93.01
41202;BME280;26936;50.524;8.684;2024-01-06T03:20:15;98197.38;;;6.56;93.81
41202;BME280;26936;50.524;8.684;2024-01-06T03:22:40;98210.13;;;6.57;93.92
41202;BME280;26936;50.524;8.684;2024-01-06T03:25:06;98197.19;;;6.72;93.48
41202;BME280;26936;50.524;8.684;2024-01-06T03:27:31;98204.53;;;6.57;93.67
41202;BME280;26936;50.524;8.684;2024-01-06T03:29:57;98206.53;;;6.56;94.09
41202;BME280;26936;50.524;8.684;2024-01-06T03:32:22;98205.97;;;6.61;93.81
41202;BME280;26936;50.524;8.684;2024-01-06T03:34:47;98204.72;;;6.84;92.43
41202;BME280;26936;50.524;8.684;2024-01-06T03:37:12;98206.47;;;6.90;91.85
41202;BME280;26936;50.524;8.684;2024-01-06T03:39:38;98203.22;;;6.92;91.56
41202;BME280;26936;50.524;8.684;2024-01-06T03:42:03;98211.16;;;6.93;91.51
41202;BME280;26936;50.524;8.684;2024-01-06T03:44:28;98209.16;;;6.94;91.49
41202;BME280;26936;50.524;8.684;2024-01-06T03:46:56;98209.47;;;6.96;91.08
41202;BME280;26936;50.524;8.684;2024-01-06T03:49:23;98215.34;;;6.89;91.80
41202;BME280;26936;50.524;8.684;2024-01-06T03:51:48;98208.06;;;6.92;91.71
41202;BME280;26936;50.524;8.684;2024-01-06T03:54:14;98207.16;;;6.73;92.45
41202;BME280;26936;50.524;8.684;2024-01-06T03:56:39;98217.63;;;6.60;93.13
41202;BME280;26936;50.524;8.684;2024-01-06T03:59:04;98221.31;;;6.57;93.97
41202;BME280;26936;50.524;8.684;2024-01-06T04:01:30;98222.03;;;6.48;94.96
41202;BME280;26936;50.524;8.684;2024-01-06T04:03:59;98219.31;;;6.79;93.45
41202;BME280;26936;50.524;8.684;2024-01-06T04:06:25;98227.91;;;6.84;92.74
41202;BME280;26936;50.524;8.684;2024-01-06T04:08:51;98221.19;;;6.60;94.34
41202;BME280;26936;50.524;8.684;2024-01-06T04:11:18;98225.78;;;6.54;95.10
41202;BME280;26936;50.524;8.684;2024-01-06T04:13:43;98224.38;;;6.50;95.12
41202;BME280;26936;50.524;8.684;2024-01-06T04:16:08;98226.38;;;6.49;95.55
41202;BME280;26936;50.524;8.684;2024-01-06T04:18:33;98232.13;;;6.67;94.32
41202;BME280;26936;50.524;8.684;2024-01-06T04:20:59;98231.06;;;6.74;93.66
41202;BME280;26936;50.524;8.684;2024-01-06T04:23:24;98229.06;;;6.74;93.25
41202;BME280;26936;50.524;8.684;2024-01-06T04:25:49;98238.72;;;6.73;93.92
41202;BME280;26936;50.524;8.684;2024-01-06T04:28:15;98231.53;;;6.72;94.21
41202;BME280;26936;50.524;8.684;2024-01-06T04:30:40;98231.88;;;6.74;94.05
41202;BME280;26936;50.524;8.684;2024-01-06T04:33:05;98240.66;;;6.85;94.17
41202;BME280;26936;50.524;8.684;2024-01-06T04:35:31;98239.31;;;6.90;93.95
41202;BME280;26936;50.524;8.684;2024-01-06T04:37:56;98240.97;;;6.87;93.87
41202;BME280;26936;50.524;8.684;2024-01-06T04:40:21;98239.88;;;6.85;94.40
41202;BME280;26936;50.524;8.684;2024-01-06T04:42:46;98228.03;;;6.81;94.44
41202;BME280;26936;50.524;8.684;2024-01-06T04:45:12;98234.34;;;6.72;94.76
41202;BME280;26936;50.524;8.684;2024-01-06T04:47:37;98226.59;;;6.76;95.48
41202;BME280;26936;50.524;8.684;2024-01-06T04:50:02;98233.16;;;6.82;94.71
41202;BME280;26936;50.524;8.684;2024-01-06T04:52:28;98236.88;;;6.79;94.96
41202;BME280;26936;50.524;8.684;2024-01-06T04:54:54;98234.53;;;6.78;94.75
41202;BME280;26936;50.524;8.684;2024-01-06T04:57:20;98229.72;;;6.78;94.84
41202;BME280;26936;50.524;8.684;2024-01-06T04:59:45;98229.06;;;6.74;95.59
41202;BME280;26936;50.524;8.684;2024-01-06T05:02:11;98236.56;;;6.77;95.32
41202;BME280;26936;50.524;8.684;2024-01-06T05:04:36;98232.38;;;6.82;95.19
41202;BME280;26936;50.524;8.684;2024-01-06T05:07:01;98239.69;;;6.79;95.31
41202;BME280;26936;50.524;8.684;2024-01-06T05:09:27;98246.69;;;6.84;95.22
41202;BME280;26936;50.524;8.684;2024-01-06T05:11:52;98241.56;;;6.82;95.04
41202;BME280;26936;50.524;8.684;2024-01-06T05:14:18;98240.97;;;6.87;95.55
41202;BME280;26936;50.524;8.684;2024-01-06T05:16:43;98243.78;;;6.87;95.04
41202;BME280;26936;50.524;8.684;2024-01-06T05:19:08;98248.47;;;6.90;94.97
41202;BME280;26936;50.524;8.684;2024-01-06T05:21:34;98244.75;;;6.93;94.82
41202;BME280;26936;50.524;8.684;2024-01-06T05:24:00;98239.59;;;6.92;94.61
41202;BME280;26936;50.524;8.684;2024-01-06T05:26:26;98240.53;;;6.89;94.67
41202;BME280;26936;50.524;8.684;2024-01-06T05:28:52;98252.06;;;6.91;94.75
41202;BME280;26936;50.524;8.684;2024-01-06T05:31:17;98248.47;;;6.90;94.73
41202;BME280;26936;50.524;8.684;2024-01-06T05:33:42;98247.53;;;6.93;94.29
41202;BME280;26936;50.524;8.684;2024-01-06T05:36:08;98252.38;;;6.93;94.45
41202;BME280;26936;50.524;8.684;2024-01-06T05:38:33;98254.97;;;6.87;94.39
41202;BME280;26936;50.524;8.684;2024-01-06T05:40:58;98255.69;;;6.79;95.07
41202;BME280;26936;50.524;8.684;2024-01-06T05:43:23;98253.34;;;6.77;95.42
41202;BME280;26936;50.524;8.684;2024-01-06T05:45:49;98249.91;;;6.73;95.66
41202;BME280;26936;50.524;8.684;2024-01-06T05:48:14;98256.94;;;6.78;95.25
41202;BME280;26936;50.524;8.684;2024-01-06T05:50:40;98255.91;;;6.84;95.16
41202;BME280;26936;50.524;8.684;2024-01-06T05:53:06;98268.13;;;6.78;94.64
41202;BME280;26936;50.524;8.684;2024-01-06T05:55:31;98266.88;;;6.79;95.28
41202;BME280;26936;50.524;8.684;2024-01-06T05:57:57;98261.72;;;6.77;95.74
41202;BME280;26936;50.524;8.684;2024-01-06T06:00:22;98263.09;;;6.73;95.88
41202;BME280;26936;50.524;8.684;2024-01-06T06:02:47;98263.91;;;6.73;95.72
41202;BME280;26936;50.524;8.684;2024-01-06T06:05:13;98275.22;;;6.70;96.13
41202;BME280;26936;50.524;8.684;2024-01-06T06:07:38;98288.22;;;6.64;97.02
41202;BME280;26936;50.524;8.684;2024-01-06T06:10:08;98282.47;;;6.67;96.92
41202;BME280;26936;50.524;8.684;2024-01-06T06:12:34;98284.97;;;6.65;96.95
41202;BME280;26936;50.524;8.684;2024-01-06T06:15:00;98290.22;;;6.63;97.20
41202;BME280;26936;50.524;8.684;2024-01-06T06:17:25;98285.41;;;6.64;97.10
41202;BME280;26936;50.524;8.684;2024-01-06T06:19:50;98291.13;;;6.60;98.21
41202;BME280;26936;50.524;8.684;2024-01-06T06:22:16;98300.97;;;6.65;98.05
41202;BME280;26936;50.524;8.684;2024-01-06T06:24:41;98297.25;;;6.68;97.90
41202;BME280;26936;50.524;8.684;2024-01-06T06:27:06;98304.84;;;6.67;98.27
41202;BME280;26936;50.524;8.684;2024-01-06T06:29:32;98301.28;;;6.67;98.45
41202;BME280;26936;50.524;8.684;2024-01-06T06:31:57;98303.88;;;6.61;98.89
41202;BME280;26936;50.524;8.684;2024-01-06T06:34:22;98310.72;;;6.60;99.29
41202;BME280;26936;50.524;8.684;2024-01-06T06:36:48;98308.38;;;6.59;99.61
41202;BME280;26936;50.524;8.684;2024-01-06T06:39:13;98317.66;;;6.56;99.47
41202;BME280;26936;50.524;8.684;2024-01-06T06:41:38;98310.28;;;6.49;99.88
41202;BME280;26936;50.524;8.684;2024-01-06T06:44:04;98325.06;;;6.50;100.00
41202;BME280;26936;50.524;8.684;2024-01-06T06:46:29;98324.81;;;6.57;100.00
41202;BME280;26936;50.524;8.684;2024-01-06T06:48:55;98316.53;;;6.53;100.00
41202;BME280;26936;50.524;8.684;2024-01-06T06:51:20;98323.38;;;6.52;100.00
41202;BME280;26936;50.524;8.684;2024-01-06T06:53:49;98321.59;;;6.46;100.00
41202;BME280;26936;50.524;8.684;2024-01-06T06:56:15;98327.06;;;6.49;100.00
41202;BME280;26936;50.524;8.684;2024-01-06T06:58:42;98336.34;;;6.59;100.00
41202;BME280;26936;50.524;8.684;2024-01-06T07:01:07;98339.91;;;6.59;99.81
41202;BME280;26936;50.524;8.684;2024-01-06T07:03:32;98352.34;;;6.58;99.92
41202;BME280;26936;50.524;8.684;2024-01-06T07:05:58;98347.38;;;6.62;99.87
41202;BME280;26936;50.524;8.684;2024-01-06T07:08:23;98353.13;;;6.59;99.49
41202;BME280;26936;50.524;8.684;2024-01-06T07:10:48;98355.38;;;6.64;99.49
41202;BME280;26936;50.524;8.684;2024-01-06T07:13:13;98359.72;;;6.65;99.03
41202;BME280;26936;50.524;8.684;2024-01-06T07:15:39;98362.06;;;6.66;99.00
41202;BME280;26936;50.524;8.684;2024-01-06T07:18:04;98359.81;;;6.61;99.02
41202;BME280;26936;50.524;8.684;2024-01-06T07:20:29;98365.75;;;6.63;99.23
41202;BME280;26936;50.524;8.684;2024-01-06T07:22:54;98370.09;;;6.64;98.63
41202;BME280;26936;50.524;8.684;2024-01-06T07:25:20;98367.31;;;6.64;98.81
41202;BME280;26936;50.524;8.684;2024-01-06T07:27:45;98369.47;;;6.60;99.04
41202;BME280;26936;50.524;8.684;2024-01-06T07:30:11;98373.69;;;6.65;99.01
41202;BME280;26936;50.524;8.684;2024-01-06T07:32:36;98377.41;;;6.49;99.67
41202;BME280;26936;50.524;8.684;2024-01-06T07:35:01;98379.41;;;6.61;99.35
41202;BME280;26936;50.524;8.684;2024-01-06T07:37:27;98377.75;;;6.64;99.02
41202;BME280;26936;50.524;8.684;2024-01-06T07:39:52;98383.19;;;6.67;99.22
41202;BME280;26936;50.524;8.684;2024-01-06T07:42:18;98387.91;;;6.70;99.08
41202;BME280;26936;50.524;8.684;2024-01-06T07:44:43;98382.75;;;6.69;99.24
41202;BME280;26936;50.524;8.684;2024-01-06T07:47:09;98390.91;;;6.76;99.25
41202;BME280;26936;50.524;8.684;2024-01-06T07:49:34;98392.50;;;6.77;99.37
41202;BME280;26936;50.524;8.684;2024-01-06T07:52:00;98395.47;;;6.82;99.27
41202;BME280;26936;50.524;8.684;2024-01-06T07:54:25;98399.28;;;6.76;99.29
41202;BME280;26936;50.524;8.684;2024-01-06T07:56:50;98405.56;;;6.80;99.71
41202;BME280;26936;50.524;8.684;2024-01-06T07:59:15;98404.31;;;6.81;99.19
41202;BME280;26936;50.524;8.684;2024-01-06T08:01:41;98410.34;;;6.92;98.91
41202;BME280;26936;50.524;8.684;2024-01-06T08:04:08;98415.25;;;7.01;98.47
41202;BME280;26936;50.524;8.684;2024-01-06T08:06:33;98414.09;;;7.11;97.88
41202;BME280;26936;50.524;8.684;2024-01-06T08:08:59;98422.97;;;7.09;97.21
41202;BME280;26936;50.524;8.684;2024-01-06T08:11:24;98428.69;;;7.06;96.99
41202;BME280;26936;50.524;8.684;2024-01-06T08:13:49;98430.22;;;7.07;97.47
41202;BME280;26936;50.524;8.684;2024-01-06T08:16:15;98439.75;;;7.09;96.65
41202;BME280;26936;50.524;8.684;2024-01-06T08:18:40;98436.28;;;7.05;97.24
41202;BME280;26936;50.524;8.684;2024-01-06T08:21:05;98438.16;;;7.08;97.53
41202;BME280;26936;50.524;8.684;2024-01-06T08:23:31;98447.03;;;7.07;97.52
41202;BME280;26936;50.524;8.684;2024-01-06T08:25:56;98439.28;;;7.11;97.70
41202;BME280;26936;50.524;8.684;2024-01-06T08:28:22;98454.84;;;7.12;97.57
41202;BME280;26936;50.524;8.684;2024-01-06T08:30:48;98463.25;;;7.12;97.20
41202;BME280;26936;50.524;8.684;2024-01-06T08:33:14;98464.94;;;7.09;97.16
41202;BME280;26936;50.524;8.684;2024-01-06T08:35:39;98462.50;;;7.11;97.35
41202;BME280;26936;50.524;8.684;2024-01-06T08:38:08;98467.06;;;7.18;97.93
41202;BME280;26936;50.524;8.684;2024-01-06T08:40:34;98469.19;;;7.14;97.66
41202;BME280;26936;50.524;8.684;2024-01-06T08:43:00;98475.78;;;7.20;98.01
41202;BME280;26936;50.524;8.684;2024-01-06T08:45:25;98471.75;;;7.21;97.73
41202;BME280;26936;50.524;8.684;2024-01-06T08:47:50;98480.06;;;7.12;97.92
41202;BME280;26936;50.524;8.684;2024-01-06T08:50:16;98476.09;;;7.22;98.19
41202;BME280;26936;50.524;8.684;2024-01-06T08:52:41;98477.44;;;7.30;97.29
41202;BME280;26936;50.524;8.684;2024-01-06T08:55:06;98479.78;;;7.31;96.84
41202;BME280;26936;50.524;8.684;2024-01-06T08:57:32;98484.47;;;7.34;97.41
41202;BME280;26936;50.524;8.684;2024-01-06T08:59:57;98491.44;;;7.30;97.50
41202;BME280;26936;50.524;8.684;2024-01-06T09:02:23;98502.13;;;7.10;98.15
41202;BME280;26936;50.524;8.684;2024-01-06T09:04:48;98494.50;;;7.23;98.29
41202;BME280;26936;50.524;8.684;2024-01-06T09:07:13;98491.44;;;7.30;97.88
41202;BME280;26936;50.524;8.684;2024-01-06T09:09:39;98500.09;;;7.23;98.09
41202;BME280;26936;50.524;8.684;2024-01-06T09:12:04;98507.78;;;7.31;98.16
41202;BME280;26936;50.524;8.684;2024-01-06T09:14:29;98504.78;;;7.26;98.42
41202;BME280;26936;50.524;8.684;2024-01-06T09:16:55;98505.56;;;7.26;98.30
41202;BME280;26936;50.524;8.684;2024-01-06T09:19:20;98503.31;;;7.34;98.17
41202;BME280;26936;50.524;8.684;2024-01-06T09:21:46;98514.41;;;7.37;98.32
41202;BME280;26936;50.524;8.684;2024-01-06T09:24:12;98512.06;;;7.36;97.87
41202;BME280;26936;50.524;8.684;2024-01-06T09:26:37;98509.09;;;7.39;97.61
41202;BME280;26936;50.524;8.684;2024-01-06T09:29:03;98514.25;;;7.41;98.16
41202;BME280;26936;50.524;8.684;2024-01-06T09:31:29;98516.47;;;7.46;97.58
41202;BME280;26936;50.524;8.684;2024-01-06T09:33:55;98518.81;;;7.47;97.38
41202;BME280;26936;50.524;8.684;2024-01-06T09:36:20;98519.63;;;7.48;97.37
41202;BME280;26936;50.524;8.684;2024-01-06T09:38:45;98515.72;;;7.45;97.43
41202;BME280;26936;50.524;8.684;2024-01-06T09:41:11;98524.44;;;7.47;97.88
41202;BME280;26936;50.524;8.684;2024-01-06T09:43:36;98525.78;;;7.43;97.61
41202;BME280;26936;50.524;8.684;2024-01-06T09:46:10;98527.50;;;7.40;97.88
41202;BME280;26936;50.524;8.684;2024-01-06T09:48:49;98541.97;;;7.39;98.27
41202;BME280;26936;50.524;8.684;2024-01-06T09:51:18;98533.63;;;7.48;98.65
41202;BME280;26936;50.524;8.684;2024-01-06T09:53:49;98531.50;;;7.52;98.10
41202;BME280;26936;50.524;8.684;2024-01-06T09:56:15;98536.88;;;7.46;98.03
41202;BME280;26936;50.524;8.684;2024-01-06T09:58:41;98539.91;;;7.39;97.62
41202;BME280;26936;50.524;8.684;2024-01-06T10:01:06;98542.88;;;7.36;98.26
41202;BME280;26936;50.524;8.684;2024-01-06T10:03:34;98543.63;;;7.36;98.50
41202;BME280;26936;50.524;8.684;2024-01-06T10:06:00;98539.59;;;7.37;98.99
41202;BME280;26936;50.524;8.684;2024-01-06T10:08:29;98547.28;;;7.46;99.08
41202;BME280;26936;50.524;8.684;2024-01-06T10:10:54;98545.84;;;7.41;99.01
41202;BME280;26936;50.524;8.684;2024-01-06T10:13:19;98543.84;;;7.42;99.50
41202;BME280;26936;50.524;8.684;2024-01-06T10:15:45;98549.63;;;7.47;99.54
41202;BME280;26936;50.524;8.684;2024-01-06T10:18:11;98559.63;;;7.48;98.93
41202;BME280;26936;50.524;8.684;2024-01-06T10:20:37;98550.44;;;7.48;99.12
41202;BME280;26936;50.524;8.684;2024-01-06T10:23:06;98552.69;;;7.40;99.52
41202;BME280;26936;50.524;8.684;2024-01-06T10:25:31;98554.59;;;7.43;99.28
41202;BME280;26936;50.524;8.684;2024-01-06T10:28:00;98565.56;;;7.50;99.66
41202;BME280;26936;50.524;8.684;2024-01-06T10:30:25;98563.66;;;7.47;98.71
41202;BME280;26936;50.524;8.684;2024-01-06T10:32:51;98564.44;;;7.48;98.27
41202;BME280;26936;50.524;8.684;2024-01-06T10:35:18;98571.03;;;7.54;99.08
41202;BME280;26936;50.524;8.684;2024-01-06T10:37:44;98565.00;;;7.55;99.84
41202;BME280;26936;50.524;8.684;2024-01-06T10:40:17;98566.19;;;7.67;100.00
41202;BME280;26936;50.524;8.684;2024-01-06T10:42:43;98560.91;;;7.69;100.00
41202;BME280;26936;50.524;8.684;2024-01-06T10:45:13;98565.75;;;7.68;99.64
41202;BME280;26936;50.524;8.684;2024-01-06T10:47:41;98574.00;;;7.72;99.83
41202;BME280;26936;50.524;8.684;2024-01-06T10:50:07;98573.25;;;7.71;99.78
41202;BME280;26936;50.524;8.684;2024-01-06T10:52:33;98568.16;;;7.79;99.74
41202;BME280;26936;50.524;8.684;2024-01-06T10:55:01;98581.53;;;7.75;99.65
41202;BME280;26936;50.524;8.684;2024-01-06T10:57:28;98575.66;;;7.82;99.84
41202;BME280;26936;50.524;8.684;2024-01-06T10:59:57;98578.34;;;7.85;99.98
41202;BME280;26936;50.524;8.684;2024-01-06T11:02:24;98577.44;;;7.88;99.79
41202;BME280;26936;50.524;8.684;2024-01-06T11:04:50;98577.88;;;7.87;100.00
41202;BME280;26936;50.524;8.684;2024-01-06T11:07:18;98580.81;;;7.83;100.00
41202;BME280;26936;50.524;8.684;2024-01-06T11:12:18;98577.88;;;7.87;100.00
41202;BME280;26936;50.524;8.684;2024-01-06T11:14:43;98575.09;;;7.87;100.00
41202;BME280;26936;50.524;8.684;2024-01-06T11:17:10;98562.50;;;7.91;100.00
41202;BME280;26936;50.524;8.684;2024-01-06T11:22:21;98563.47;;;7.76;100.00
41202;BME280;26936;50.524;8.684;2024-01-06T11:24:49;98565.03;;;7.77;100.00
41202;BME280;26936;50.524;8.684;2024-01-06T11:27:33;98566.50;;;7.81;100.00
41202;BME280;26936;50.524;8.684;2024-01-06T11:30:00;98561.06;;;7.87;100.00
41202;BME280;26936;50.524;8.684;2024-01-06T11:32:29;98553.78;;;7.89;100.00
41202;BME280;26936;50.524;8.684;2024-01-06T11:34:56;98555.81;;;7.89;100.00
41202;BME280;26936;50.524;8.684;2024-01-06T11:37:35;98552.59;;;7.99;100.00
41202;BME280;26936;50.524;8.684;2024-01-06T11:42:33;98552.56;;;8.12;100.00
41202;BME280;26936;50.524;8.684;2024-01-06T11:45:03;98551.25;;;8.25;100.00
41202;BME280;26936;50.524;8.684;2024-01-06T11:47:30;98552.06;;;8.26;100.00
41202;BME280;26936;50.524;8.684;2024-01-06T11:49:57;98545.91;;;8.18;100.00
41202;BME280;26936;50.524;8.684;2024-01-06T11:52:24;98546.25;;;8.20;100.00
41202;BME280;26936;50.524;8.684;2024-01-06T11:54:52;98543.63;;;8.26;100.00
41202;BME280;26936;50.524;8.684;2024-01-06T11:57:17;98544.94;;;8.34;100.00
41202;BME280;26936;50.524;8.684;2024-01-06T11:59:42;98538.88;;;8.36;100.00
41202;BME280;26936;50.524;8.684;2024-01-06T12:02:11;98537.94;;;8.39;100.00
41202;BME280;26936;50.524;8.684;2024-01-06T12:04:36;98532.66;;;8.41;100.00
41202;BME280;26936;50.524;8.684;2024-01-06T12:07:08;98544.69;;;8.41;100.00
41202;BME280;26936;50.524;8.684;2024-01-06T12:09:34;98536.38;;;8.38;100.00
41202;BME280;26936;50.524;8.684;2024-01-06T12:12:03;98536.38;;;8.38;100.00
41202;BME280;26936;50.524;8.684;2024-01-06T12:18:06;98532.19;;;8.42;100.00
41202;BME280;26936;50.524;8.684;2024-01-06T12:21:15;98549.16;;;8.39;100.00
41202;BME280;26936;50.524;8.684;2024-01-06T12:24:32;98545.78;;;8.22;100.00
41202;BME280;26936;50.524;8.684;2024-01-06T12:27:27;98545.72;;;8.35;100.00
41202;BME280;26936;50.524;8.684;2024-01-06T12:37:16;98544.22;;;8.43;100.00
41202;BME280;26936;50.524;8.684;2024-01-06T12:39:51;98551.38;;;8.44;100.00
41202;BME280;26936;50.524;8.684;2024-01-06T12:42:19;98537.31;;;8.35;100.00
41202;BME280;26936;50.524;8.684;2024-01-06T12:44:47;98543.56;;;8.39;98.71
41202;BME280;26936;50.524;8.684;2024-01-06T12:47:17;98551.25;;;8.47;98.72
41202;BME280;26936;50.524;8.684;2024-01-06T12:49:42;98554.38;;;8.49;98.34
41202;BME280;26936;50.524;8.684;2024-01-06T12:52:11;98548.31;;;8.51;99.21
41202;BME280;26936;50.524;8.684;2024-01-06T12:54:37;98549.88;;;8.52;99.38
41202;BME280;26936;50.524;8.684;2024-01-06T12:57:02;98554.84;;;8.48;99.03
41202;BME280;26936;50.524;8.684;2024-01-06T12:59:31;98555.31;;;8.46;99.69
41202;BME280;26936;50.524;8.684;2024-01-06T13:01:56;98561.06;;;8.43;99.69
41202;BME280;26936;50.524;8.684;2024-01-06T13:04:22;98564.91;;;8.36;99.49
41202;BME280;26936;50.524;8.684;2024-01-06T13:06:51;98567.34;;;8.25;100.00
41202;BME280;26936;50.524;8.684;2024-01-06T13:09:16;98564.97;;;8.23;99.95
41202;BME280;26936;50.524;8.684;2024-01-06T13:11:42;98563.81;;;7.99;100.00
41202;BME280;26936;50.524;8.684;2024-01-06T13:14:07;98569.34;;;7.90;99.70
41202;BME280;26936;50.524;8.684;2024-01-06T13:16:33;98580.03;;;8.17;100.00
41202;BME280;26936;50.524;8.684;2024-01-06T13:18:58;98584.63;;;8.11;99.52
41202;BME280;26936;50.524;8.684;2024-01-06T13:21:24;98586.72;;;8.19;99.25
41202;BME280;26936;50.524;8.684;2024-01-06T13:23:52;98580.66;;;8.21;98.82